createdAt,value
2022-11-14T00:01:15.326Z,78.38
2022-11-14T00:04:06.672Z,78.35
2022-11-14T00:06:57.928Z,78.35
2022-11-14T00:09:44.523Z,78.14
2022-11-14T00:12:31.511Z,78.30
2022-11-14T00:15:17.640Z,78.57
2022-11-14T00:18:05.348Z,79.12
2022-11-14T00:20:53.656Z,79.11
2022-11-14T00:23:39.724Z,79.22
2022-11-14T00:26:26.097Z,78.87
2022-11-14T00:29:13.316Z,78.75
2022-11-14T00:31:59.596Z,78.85
2022-11-14T00:34:45.732Z,78.61
2022-11-14T00:37:32.035Z,78.54
2022-11-14T00:40:18.326Z,78.52
2022-11-14T00:43:04.761Z,78.76
2022-11-14T00:45:51.437Z,78.86
2022-11-14T00:48:49.700Z,78.66
2022-11-14T00:51:36.435Z,78.74
2022-11-14T00:54:22.733Z,78.67
2022-11-14T00:57:08.838Z,79.14
2022-11-14T00:59:56.796Z,79.26
2022-11-14T01:02:43.379Z,79.21
2022-11-14T01:05:30.283Z,79.24
2022-11-14T01:08:20.077Z,79.04
2022-11-14T01:11:18.172Z,78.90
2022-11-14T01:14:07.817Z,79.05
2022-11-14T01:16:54.137Z,78.89
2022-11-14T01:19:40.360Z,78.68
2022-11-14T01:22:27.160Z,78.86
2022-11-14T01:25:14.841Z,79.18
2022-11-14T01:28:02.464Z,79.08
2022-11-14T01:30:49.463Z,79.37
2022-11-14T01:33:40.514Z,79.06
2022-11-14T01:36:31.400Z,79.06
2022-11-14T01:39:19.061Z,78.96
2022-11-14T01:42:08.331Z,78.85
2022-11-14T01:44:55.663Z,78.79
2022-11-14T01:47:45.376Z,79.05
2022-11-14T01:50:32.464Z,78.72
2022-11-14T01:53:23.672Z,78.96
2022-11-14T01:56:16.846Z,78.75
2022-11-14T01:59:13.026Z,78.86
2022-11-14T02:02:34.192Z,78.67
2022-11-14T02:05:26.943Z,78.76
2022-11-14T02:08:18.446Z,78.85
2022-11-14T02:11:06.101Z,78.82
2022-11-14T02:13:53.817Z,78.53
2022-11-14T02:17:01.126Z,78.68
2022-11-14T02:20:02.216Z,78.80
2022-11-14T02:22:51.323Z,78.83
2022-11-14T02:25:38.938Z,78.62
2022-11-14T02:28:25.952Z,78.89
2022-11-14T02:31:12.909Z,78.63
2022-11-14T02:33:58.785Z,78.60
2022-11-14T02:36:45.123Z,78.71
2022-11-14T02:39:31.588Z,78.62
2022-11-14T02:42:18.032Z,78.42
2022-11-14T02:45:12.499Z,78.53
2022-11-14T02:47:58.950Z,78.63
2022-11-14T02:50:45.307Z,78.37
2022-11-14T02:53:36.321Z,78.45
2022-11-14T02:56:24.603Z,78.61
2022-11-14T02:59:11.481Z,78.68
2022-11-14T03:01:58.614Z,79.04
2022-11-14T03:04:45.304Z,78.89
2022-11-14T03:07:33.008Z,79.30
2022-11-14T03:10:19.789Z,79.28
2022-11-14T03:13:07.938Z,78.98
2022-11-14T03:15:54.447Z,79.32
2022-11-14T03:18:42.635Z,79.06
2022-11-14T03:21:28.798Z,79.12
2022-11-14T03:24:14.809Z,79.06
2022-11-14T03:27:02.349Z,79.11
2022-11-14T03:29:49.847Z,79.05
2022-11-14T03:32:44.413Z,78.83
2022-11-14T03:35:30.777Z,78.82
2022-11-14T03:38:18.271Z,79.07
2022-11-14T03:41:05.386Z,79.04
2022-11-14T03:43:51.952Z,79.54
2022-11-14T03:46:38.291Z,79.50
2022-11-14T03:49:30.524Z,79.85
2022-11-14T03:52:17.366Z,80.50
2022-11-14T03:55:03.791Z,80.52
2022-11-14T03:57:50.252Z,80.33
2022-11-14T04:00:37.315Z,80.47
2022-11-14T04:03:25.586Z,80.87
2022-11-14T04:06:12.245Z,81.05
2022-11-14T04:08:58.612Z,80.96
2022-11-14T04:11:45.037Z,80.95
2022-11-14T04:14:32.183Z,80.48
2022-11-14T04:17:20.904Z,80.73
2022-11-14T04:20:09.206Z,80.26
2022-11-14T04:22:56.696Z,80.62
2022-11-14T04:25:47.482Z,80.65
2022-11-14T04:28:41.575Z,80.73
2022-11-14T04:31:28.669Z,80.79
2022-11-14T04:34:16.750Z,80.62
2022-11-14T04:37:03.403Z,80.60
2022-11-14T04:39:49.782Z,80.47
2022-11-14T04:42:36.127Z,80.57
2022-11-14T04:45:25.954Z,80.45
2022-11-14T04:48:15.888Z,80.94
2022-11-14T04:51:02.775Z,80.84
2022-11-14T04:53:49.710Z,81.09
2022-11-14T04:56:36.211Z,81.40
2022-11-14T04:59:22.181Z,81.14
2022-11-14T05:02:08.834Z,81.79
2022-11-14T05:04:55.387Z,81.83
2022-11-14T05:07:49.724Z,82.24
2022-11-14T05:10:36.278Z,82.36
2022-11-14T05:13:22.520Z,82.34
2022-11-14T05:16:08.695Z,81.75
2022-11-14T05:18:58.061Z,81.68
2022-11-14T05:21:44.547Z,81.46
2022-11-14T05:24:30.977Z,81.31
2022-11-14T05:27:17.932Z,81.10
2022-11-14T05:30:05.432Z,81.22
2022-11-14T05:32:55.504Z,80.99
2022-11-14T05:35:41.922Z,81.09
2022-11-14T05:38:31.823Z,81.03
2022-11-14T05:41:22.344Z,80.71
2022-11-14T05:44:08.695Z,80.52
2022-11-14T05:46:55.272Z,80.48
2022-11-14T05:49:41.969Z,80.28
2022-11-14T05:52:28.507Z,80.75
2022-11-14T05:55:18.307Z,80.64
2022-11-14T05:58:06.734Z,80.42
2022-11-14T06:00:54.553Z,80.22
2022-11-14T06:03:44.827Z,79.90
2022-11-14T06:06:31.644Z,80.11
2022-11-14T06:09:17.749Z,80.04
2022-11-14T06:12:06.943Z,80.08
2022-11-14T06:14:53.283Z,80.04
2022-11-14T06:17:39.611Z,80.19
2022-11-14T06:20:26.309Z,80.17
2022-11-14T06:23:13.275Z,80.22
2022-11-14T06:26:03.530Z,79.91
2022-11-14T06:28:51.402Z,79.92
2022-11-14T06:31:37.615Z,79.89
2022-11-14T06:34:24.545Z,80.19
2022-11-14T06:37:12.992Z,79.74
2022-11-14T06:39:59.636Z,79.88
2022-11-14T06:42:46.372Z,79.95
2022-11-14T06:45:32.683Z,79.80
2022-11-14T06:48:19.270Z,80.11
2022-11-14T06:51:06.549Z,80.69
2022-11-14T06:53:52.461Z,83.45
2022-11-14T06:56:38.622Z,81.34
2022-11-14T06:59:27.313Z,80.68
2022-11-14T07:02:20.495Z,81.70
2022-11-14T07:05:08.320Z,82.17
2022-11-14T07:07:54.521Z,81.76
2022-11-14T07:10:41.541Z,80.80
2022-11-14T07:13:27.683Z,78.76
2022-11-14T07:16:13.927Z,78.46
2022-11-14T07:19:01.066Z,79.16
2022-11-14T07:21:50.596Z,78.24
2022-11-14T07:24:37.209Z,78.73
2022-11-14T07:27:23.970Z,78.19
2022-11-14T07:30:11.850Z,78.63
2022-11-14T07:32:59.888Z,77.59
2022-11-14T07:35:47.128Z,77.79
2022-11-14T07:38:34.793Z,77.40
2022-11-14T07:41:22.283Z,77.51
2022-11-14T07:44:09.028Z,78.17
2022-11-14T07:46:55.145Z,77.50
2022-11-14T07:49:47.087Z,77.31
2022-11-14T07:52:33.952Z,77.28
2022-11-14T07:55:21.346Z,77.28
2022-11-14T07:58:07.315Z,77.45
2022-11-14T08:00:53.444Z,77.19
2022-11-14T08:03:45.121Z,77.35
2022-11-14T08:06:31.987Z,77.90
2022-11-14T08:09:18.043Z,77.92
2022-11-14T08:12:04.343Z,78.33
2022-11-14T08:14:50.883Z,78.07
2022-11-14T08:17:37.362Z,77.84
2022-11-14T08:20:23.399Z,78.62
2022-11-14T08:23:11.844Z,77.97
2022-11-14T08:26:00.253Z,77.84
2022-11-14T08:28:45.798Z,77.57
2022-11-14T08:31:32.365Z,77.42
2022-11-14T08:34:18.438Z,77.86
2022-11-14T08:37:05.366Z,77.76
2022-11-14T08:39:52.098Z,77.98
2022-11-14T08:42:38.367Z,78.00
2022-11-14T08:45:24.544Z,78.42
2022-11-14T08:48:13.421Z,78.58
2022-11-14T08:51:04.815Z,78.03
2022-11-14T08:53:52.988Z,78.09
2022-11-14T08:56:38.963Z,77.41
2022-11-14T08:59:24.300Z,77.18
2022-11-14T09:02:14.684Z,76.71
2022-11-14T09:05:01.238Z,76.13
2022-11-14T09:07:46.811Z,75.77
2022-11-14T09:10:33.291Z,75.27
2022-11-14T09:13:19.444Z,75.12
2022-11-14T09:16:05.605Z,75.12
2022-11-14T09:18:51.244Z,74.71
2022-11-14T09:21:37.192Z,74.44
2022-11-14T09:24:23.003Z,74.33
2022-11-14T09:27:09.223Z,74.04
2022-11-14T09:29:55.089Z,74.31
2022-11-14T09:32:41.067Z,74.13
2022-11-14T09:35:26.912Z,73.90
2022-11-14T09:38:13.065Z,73.76
2022-11-14T09:41:22.921Z,72.96
2022-11-14T09:44:27.160Z,72.24
2022-11-14T09:47:20.988Z,71.90
2022-11-14T09:50:30.869Z,70.79
2022-11-14T09:53:27.396Z,70.36
2022-11-14T09:56:24.034Z,69.89
2022-11-14T09:59:13.031Z,69.27
2022-11-14T10:02:02.657Z,68.82
2022-11-14T10:04:56.078Z,68.73
2022-11-14T10:08:25.040Z,68.95
2022-11-14T10:11:17.181Z,68.56
2022-11-14T10:14:37.850Z,68.42
2022-11-14T10:17:30.238Z,68.49
2022-11-14T10:20:42.768Z,68.22
2022-11-14T10:23:38.303Z,68.08
2022-11-14T10:26:32.461Z,67.59
2022-11-14T10:29:52.395Z,68.44
2022-11-14T10:32:38.264Z,68.57
2022-11-14T10:35:48.601Z,68.53
2022-11-14T10:38:44.970Z,68.91
2022-11-14T10:44:51.376Z,69.14
2022-11-14T10:47:41.400Z,69.21
2022-11-14T10:50:42.901Z,69.00
2022-11-14T10:53:32.150Z,68.96
2022-11-14T10:56:18.366Z,68.77
2022-11-14T10:59:04.903Z,68.32
2022-11-14T11:01:59.038Z,68.09
2022-11-14T11:04:46.036Z,67.98
2022-11-14T11:07:50.560Z,68.13
2022-11-14T11:11:00.456Z,67.95
2022-11-14T11:14:04.884Z,67.37
2022-11-14T11:17:07.943Z,67.10
2022-11-14T11:19:54.043Z,66.97
2022-11-14T11:22:40.338Z,67.06
2022-11-14T11:25:35.219Z,67.06
2022-11-14T11:28:23.202Z,66.96
2022-11-14T11:31:12.774Z,67.01
2022-11-14T11:34:04.768Z,66.94
2022-11-14T11:37:04.689Z,66.39
2022-11-14T11:39:58.387Z,67.28
2022-11-14T11:43:37.292Z,67.13
2022-11-14T11:46:49.430Z,66.86
2022-11-14T11:49:53.331Z,66.93
2022-11-14T11:53:14.383Z,67.10
2022-11-14T11:56:08.948Z,66.97
2022-11-14T11:59:04.606Z,66.47
2022-11-14T12:01:52.525Z,66.48
2022-11-14T12:04:38.499Z,66.50
2022-11-14T12:07:55.347Z,66.40
2022-11-14T12:10:42.269Z,66.84
2022-11-14T12:14:10.613Z,67.63
2022-11-14T12:17:09.684Z,67.94
2022-11-14T12:20:04.975Z,67.97
2022-11-14T12:23:20.004Z,68.11
2022-11-14T12:26:25.129Z,68.09
2022-11-14T12:29:38.584Z,67.69
2022-11-14T12:32:41.573Z,68.21
2022-11-14T12:35:39.665Z,68.58
2022-11-14T12:38:32.099Z,68.56
2022-11-14T12:41:28.079Z,69.08
2022-11-14T12:44:31.608Z,69.71
2022-11-14T12:47:30.570Z,70.20
2022-11-14T12:50:39.989Z,70.04
2022-11-14T12:53:37.897Z,69.22
2022-11-14T12:56:33.515Z,69.05
2022-11-14T12:59:58.829Z,68.96
2022-11-14T13:03:35.587Z,68.45
2022-11-14T13:06:39.994Z,68.20
2022-11-14T13:09:40.486Z,67.30
2022-11-14T13:12:45.079Z,66.47
2022-11-14T13:15:52.240Z,65.09
2022-11-14T13:19:35.337Z,64.07
2022-11-14T13:22:39.410Z,62.92
2022-11-14T13:25:26.124Z,62.62
2022-11-14T13:28:47.134Z,62.42
2022-11-14T13:31:37.725Z,62.47
2022-11-14T13:34:33.586Z,62.72
2022-11-14T13:37:54.742Z,63.32
2022-11-14T13:41:07.383Z,63.35
2022-11-14T13:44:11.988Z,62.98
2022-11-14T13:47:18.998Z,62.70
2022-11-14T13:50:07.071Z,63.04
2022-11-14T13:52:53.650Z,62.34
2022-11-14T13:55:51.626Z,61.73
2022-11-14T13:58:37.714Z,61.14
2022-11-14T14:01:36.954Z,60.35
2022-11-14T14:04:51.942Z,59.93
2022-11-14T14:07:56.737Z,60.14
2022-11-14T14:10:50.994Z,60.30
2022-11-14T14:13:55.593Z,60.56
2022-11-14T14:17:10.193Z,60.63
2022-11-14T14:20:02.097Z,61.14
2022-11-14T14:23:17.563Z,60.81
2022-11-14T14:26:30.547Z,60.77
2022-11-14T14:29:28.669Z,60.71
2022-11-14T14:32:17.694Z,61.16
2022-11-14T14:35:28.841Z,60.94
2022-11-14T14:38:28.477Z,61.12
2022-11-14T14:41:17.241Z,60.96
2022-11-14T14:44:04.891Z,61.15
2022-11-14T14:46:51.579Z,61.37
2022-11-14T14:49:42.082Z,61.73
2022-11-14T14:52:38.062Z,61.85
2022-11-14T14:55:29.960Z,62.67
2022-11-14T14:58:28.923Z,62.74
2022-11-14T15:01:18.199Z,63.33
2022-11-14T15:04:16.056Z,63.38
2022-11-14T15:07:02.449Z,64.20
2022-11-14T15:10:06.329Z,64.62
2022-11-14T15:12:53.990Z,65.67
2022-11-14T15:15:40.025Z,66.10
2022-11-14T15:18:29.804Z,66.74
2022-11-14T15:21:25.321Z,67.22
2022-11-14T15:24:22.297Z,67.31
2022-11-14T15:27:20.511Z,67.84
2022-11-14T15:30:20.075Z,68.03
2022-11-14T15:33:27.560Z,67.77
2022-11-14T15:36:20.341Z,67.81
2022-11-14T15:39:30.741Z,67.83
2022-11-14T15:42:26.953Z,68.10
2022-11-14T15:45:30.112Z,68.14
2022-11-14T15:48:19.870Z,68.23
2022-11-14T15:51:05.897Z,68.43
2022-11-14T15:53:53.792Z,68.36
2022-11-14T15:56:39.905Z,68.27
2022-11-14T15:59:36.649Z,67.81
2022-11-14T16:02:36.993Z,67.99
2022-11-14T16:05:30.825Z,67.74
2022-11-14T16:08:30.143Z,67.94
2022-11-14T16:11:25.930Z,67.43
2022-11-14T16:14:24.924Z,67.31
2022-11-14T16:17:26.359Z,66.93
2022-11-14T16:20:29.654Z,66.76
2022-11-14T16:23:34.858Z,66.99
2022-11-14T16:26:31.675Z,67.93
2022-11-14T16:29:28.417Z,67.78
2022-11-14T16:32:17.475Z,67.79
2022-11-14T16:35:04.836Z,67.81
2022-11-14T16:37:56.304Z,68.33
2022-11-14T16:40:47.746Z,68.35
2022-11-14T16:43:40.452Z,68.35
2022-11-14T16:46:34.390Z,68.67
2022-11-14T16:49:36.187Z,68.98
2022-11-14T16:52:32.105Z,68.14
2022-11-14T16:55:32.607Z,68.19
2022-11-14T16:58:32.811Z,68.15
2022-11-14T17:01:22.942Z,68.06
2022-11-14T17:04:15.562Z,67.82
2022-11-14T17:07:22.777Z,68.03
2022-11-14T17:10:16.659Z,68.15
2022-11-14T17:13:24.183Z,68.32
2022-11-14T17:16:20.089Z,68.51
2022-11-14T17:19:13.545Z,68.38
2022-11-14T17:22:06.036Z,68.23
2022-11-14T17:24:59.356Z,68.67
2022-11-14T17:27:51.124Z,68.50
2022-11-14T17:30:57.518Z,67.42
2022-11-14T17:33:54.517Z,67.64
2022-11-14T17:36:42.397Z,67.47
2022-11-14T17:39:44.975Z,66.83
2022-11-14T17:42:37.318Z,63.72
2022-11-14T17:45:27.303Z,60.67
2022-11-14T17:48:18.313Z,61.10
2022-11-14T17:51:13.141Z,58.35
2022-11-14T17:54:14.522Z,59.27
2022-11-14T17:57:01.483Z,58.36
2022-11-14T17:59:50.394Z,57.70
2022-11-14T18:02:36.300Z,58.09
2022-11-14T18:05:24.145Z,57.32
2022-11-14T18:08:10.420Z,56.40
2022-11-14T18:11:03.071Z,56.35
2022-11-14T18:13:49.394Z,55.90
2022-11-14T18:17:10.504Z,55.59
2022-11-14T18:19:49.757Z,55.32
2022-11-14T18:22:43.328Z,54.73
2022-11-14T18:25:31.878Z,55.21
2022-11-14T18:28:23.694Z,54.65
2022-11-14T18:31:11.428Z,54.55
2022-11-14T18:33:58.339Z,54.88
2022-11-14T18:36:48.101Z,55.25
2022-11-14T18:39:36.651Z,54.44
2022-11-14T18:42:25.856Z,55.36
2022-11-14T18:45:12.023Z,55.51
2022-11-14T18:47:58.221Z,54.65
2022-11-14T18:50:44.819Z,55.19
2022-11-14T18:53:33.113Z,54.73
2022-11-14T18:56:28.101Z,55.39
2022-11-14T18:59:14.586Z,55.23
2022-11-14T19:02:01.069Z,54.67
2022-11-14T19:04:47.397Z,55.12
2022-11-14T19:07:33.277Z,54.84
2022-11-14T19:10:22.163Z,54.75
2022-11-14T19:13:09.371Z,54.82
2022-11-14T19:16:07.380Z,54.08
2022-11-14T19:18:53.619Z,54.25
2022-11-14T19:21:40.435Z,54.51
2022-11-14T19:24:27.282Z,54.33
2022-11-14T19:27:16.683Z,54.45
2022-11-14T19:30:03.686Z,54.47
2022-11-14T19:32:58.791Z,54.56
2022-11-14T19:35:45.409Z,54.50
2022-11-14T19:38:32.058Z,54.32
2022-11-14T19:41:34.534Z,54.56
2022-11-14T19:44:30.780Z,54.94
2022-11-14T19:47:31.831Z,54.82
2022-11-14T19:50:18.660Z,54.81
2022-11-14T19:53:04.464Z,55.10
2022-11-14T19:55:50.464Z,55.51
2022-11-14T19:58:38.374Z,55.61
2022-11-14T20:01:32.040Z,54.54
2022-11-14T20:04:19.302Z,54.63
2022-11-14T20:07:05.724Z,53.66
2022-11-14T20:09:52.035Z,54.59
2022-11-14T20:12:38.940Z,53.55
2022-11-14T20:15:24.990Z,54.22
2022-11-14T20:18:10.621Z,56.06
2022-11-14T20:20:58.835Z,58.95
2022-11-14T20:23:58.018Z,59.73
2022-11-14T20:26:45.814Z,58.88
2022-11-14T20:29:32.157Z,56.32
2022-11-14T20:32:19.982Z,55.90
2022-11-14T20:35:06.703Z,56.29
2022-11-14T20:37:52.807Z,54.91
2022-11-14T20:40:42.220Z,55.24
2022-11-14T20:43:30.224Z,54.89
2022-11-14T20:46:22.062Z,54.30
2022-11-14T20:49:08.085Z,54.93
2022-11-14T20:51:54.005Z,54.66
2022-11-14T20:54:40.079Z,54.35
2022-11-14T20:57:26.130Z,54.88
2022-11-14T21:00:12.928Z,56.32
2022-11-14T21:02:58.912Z,58.00
2022-11-14T21:05:45.694Z,58.03
2022-11-14T21:08:35.494Z,59.37
2022-11-14T21:11:22.680Z,58.98
2022-11-14T21:14:12.617Z,59.51
2022-11-14T21:16:58.620Z,59.78
2022-11-14T21:19:44.512Z,59.96
2022-11-14T21:22:31.801Z,59.86
2022-11-14T21:25:17.658Z,60.94
2022-11-14T21:28:03.248Z,61.72
2022-11-14T21:30:49.495Z,61.58
2022-11-14T21:33:35.245Z,61.72
2022-11-14T21:39:27.878Z,60.54
2022-11-14T21:42:18.197Z,58.45
2022-11-14T21:45:05.558Z,57.45
2022-11-14T21:47:55.089Z,57.29
2022-11-14T21:50:42.158Z,57.52
2022-11-14T21:53:29.393Z,57.36
2022-11-14T21:56:24.744Z,57.76
2022-11-14T21:59:18.705Z,57.77
2022-11-14T22:02:23.496Z,57.42
2022-11-14T22:05:11.539Z,56.91
2022-11-14T22:07:58.045Z,56.63
2022-11-14T22:10:43.665Z,56.66
2022-11-14T22:13:34.386Z,56.60
2022-11-14T22:16:23.160Z,56.74
2022-11-14T22:19:09.153Z,56.90
2022-11-14T22:21:55.268Z,57.14
2022-11-14T22:24:42.921Z,57.23
2022-11-14T22:27:28.788Z,57.38
2022-11-14T22:30:22.751Z,56.99
2022-11-14T22:33:08.573Z,56.68
2022-11-14T22:35:54.674Z,56.27
2022-11-14T22:39:18.006Z,56.39
2022-11-14T22:42:09.279Z,56.91
2022-11-14T22:44:56.546Z,56.34
2022-11-14T22:47:42.882Z,56.34
2022-11-14T22:50:29.665Z,56.44
2022-11-14T22:53:16.182Z,57.23
2022-11-14T22:56:03.182Z,57.12
2022-11-14T22:58:49.599Z,57.51
2022-11-14T23:01:35.756Z,57.22
2022-11-14T23:04:21.869Z,56.60
2022-11-14T23:07:07.879Z,56.68
2022-11-14T23:09:53.453Z,57.21
2022-11-14T23:12:39.637Z,57.73
2022-11-14T23:15:25.743Z,57.98
2022-11-14T23:18:12.080Z,57.71
2022-11-14T23:21:04.224Z,57.62
2022-11-14T23:23:58.952Z,57.75
2022-11-14T23:26:45.563Z,57.97
2022-11-14T23:29:31.888Z,57.67
2022-11-14T23:32:18.057Z,57.27
2022-11-14T23:35:03.967Z,57.40
2022-11-14T23:37:49.851Z,57.48
2022-11-14T23:40:36.768Z,57.65
2022-11-14T23:43:23.254Z,57.79
2022-11-14T23:46:09.143Z,58.11
2022-11-14T23:48:55.592Z,57.69
2022-11-14T23:51:42.849Z,57.58
2022-11-14T23:54:28.567Z,57.88
2022-11-14T23:57:20.639Z,57.85
